sensor_id;sensor_type;location;lat;lon;timestamp;P1;durP1;ratioP1;P2;durP2;ratioP2
1336;SDS011;662;48.814;9.318;2023-12-28T00:00:17;3.27;;;2.27;;
1336;SDS011;662;48.814;9.318;2023-12-28T00:02:43;3.50;;;2.73;;
1336;SDS011;662;48.814;9.318;2023-12-28T00:05:08;3.10;;;2.67;;
1336;SDS011;662;48.814;9.318;2023-12-28T00:07:34;3.87;;;3.13;;
1336;SDS011;662;48.814;9.318;2023-12-28T00:10:00;2.53;;;2.33;;
1336;SDS011;662;48.814;9.318;2023-12-28T00:12:27;4.60;;;2.77;;
1336;SDS011;662;48.814;9.318;2023-12-28T00:14:53;3.73;;;2.37;;
1336;SDS011;662;48.814;9.318;2023-12-28T00:17:18;4.40;;;3.50;;
1336;SDS011;662;48.814;9.318;2023-12-28T00:19:44;3.43;;;2.57;;
1336;SDS011;662;48.814;9.318;2023-12-28T00:22:10;2.63;;;2.43;;
1336;SDS011;662;48.814;9.318;2023-12-28T00:24:35;2.70;;;2.50;;
1336;SDS011;662;48.814;9.318;2023-12-28T00:27:01;2.57;;;2.37;;
1336;SDS011;662;48.814;9.318;2023-12-28T00:29:26;2.43;;;2.20;;
1336;SDS011;662;48.814;9.318;2023-12-28T00:31:54;2.47;;;2.20;;
1336;SDS011;662;48.814;9.318;2023-12-28T00:34:19;2.57;;;2.37;;
1336;SDS011;662;48.814;9.318;2023-12-28T00:36:45;2.33;;;1.97;;
1336;SDS011;662;48.814;9.318;2023-12-28T00:39:11;2.83;;;2.30;;
1336;SDS011;662;48.814;9.318;2023-12-28T00:41:36;4.10;;;2.43;;
1336;SDS011;662;48.814;9.318;2023-12-28T00:44:02;2.17;;;1.97;;
1336;SDS011;662;48.814;9.318;2023-12-28T00:46:28;3.40;;;2.30;;
1336;SDS011;662;48.814;9.318;2023-12-28T00:48:53;2.73;;;2.33;;
1336;SDS011;662;48.814;9.318;2023-12-28T00:51:19;2.60;;;2.40;;
1336;SDS011;662;48.814;9.318;2023-12-28T00:53:46;4.03;;;2.87;;
1336;SDS011;662;48.814;9.318;2023-12-28T00:56:11;2.10;;;1.90;;
1336;SDS011;662;48.814;9.318;2023-12-28T00:58:40;4.33;;;3.60;;
1336;SDS011;662;48.814;9.318;2023-12-28T01:01:08;2.37;;;2.10;;
1336;SDS011;662;48.814;9.318;2023-12-28T01:03:34;5.03;;;2.70;;
1336;SDS011;662;48.814;9.318;2023-12-28T01:05:59;4.37;;;2.70;;
1336;SDS011;662;48.814;9.318;2023-12-28T01:08:25;3.60;;;2.37;;
1336;SDS011;662;48.814;9.318;2023-12-28T01:10:51;2.20;;;1.93;;
1336;SDS011;662;48.814;9.318;2023-12-28T01:13:16;2.50;;;2.20;;
1336;SDS011;662;48.814;9.318;2023-12-28T01:15:42;2.20;;;2.00;;
1336;SDS011;662;48.814;9.318;2023-12-28T01:18:11;2.20;;;2.00;;
1336;SDS011;662;48.814;9.318;2023-12-28T01:20:36;3.13;;;2.07;;
1336;SDS011;662;48.814;9.318;2023-12-28T01:23:03;2.37;;;2.17;;
1336;SDS011;662;48.814;9.318;2023-12-28T01:25:29;2.30;;;1.93;;
1336;SDS011;662;48.814;9.318;2023-12-28T01:27:54;2.37;;;2.17;;
1336;SDS011;662;48.814;9.318;2023-12-28T01:30:20;2.73;;;2.30;;
1336;SDS011;662;48.814;9.318;2023-12-28T01:32:46;2.10;;;1.90;;
1336;SDS011;662;48.814;9.318;2023-12-28T01:35:11;2.30;;;2.10;;
1336;SDS011;662;48.814;9.318;2023-12-28T01:37:37;2.13;;;1.90;;
1336;SDS011;662;48.814;9.318;2023-12-28T01:40:03;3.50;;;2.00;;
1336;SDS011;662;48.814;9.318;2023-12-28T01:42:29;3.13;;;2.53;;
1336;SDS011;662;48.814;9.318;2023-12-28T01:44:56;3.10;;;2.50;;
1336;SDS011;662;48.814;9.318;2023-12-28T01:47:22;2.97;;;2.17;;
1336;SDS011;662;48.814;9.318;2023-12-28T01:49:51;2.30;;;2.10;;
1336;SDS011;662;48.814;9.318;2023-12-28T01:52:18;2.30;;;2.10;;
1336;SDS011;662;48.814;9.318;2023-12-28T01:54:44;2.20;;;1.93;;
1336;SDS011;662;48.814;9.318;2023-12-28T01:57:09;3.20;;;2.20;;
1336;SDS011;662;48.814;9.318;2023-12-28T01:59:37;2.90;;;2.20;;
1336;SDS011;662;48.814;9.318;2023-12-28T02:02:03;2.47;;;2.00;;
1336;SDS011;662;48.814;9.318;2023-12-28T02:04:28;2.03;;;1.93;;
1336;SDS011;662;48.814;9.318;2023-12-28T02:06:56;4.80;;;2.30;;
1336;SDS011;662;48.814;9.318;2023-12-28T02:09:22;2.23;;;2.03;;
1336;SDS011;662;48.814;9.318;2023-12-28T02:11:48;2.40;;;2.20;;
1336;SDS011;662;48.814;9.318;2023-12-28T02:14:14;2.73;;;2.33;;
1336;SDS011;662;48.814;9.318;2023-12-28T02:17:03;2.27;;;2.07;;
1336;SDS011;662;48.814;9.318;2023-12-28T02:22:19;3.37;;;2.90;;
1336;SDS011;662;48.814;9.318;2023-12-28T02:24:55;3.40;;;2.97;;
1336;SDS011;662;48.814;9.318;2023-12-28T02:27:43;3.33;;;3.03;;
1336;SDS011;662;48.814;9.318;2023-12-28T02:30:11;3.10;;;2.80;;
1336;SDS011;662;48.814;9.318;2023-12-28T02:35:19;3.40;;;3.10;;
1336;SDS011;662;48.814;9.318;2023-12-28T02:37:51;3.47;;;2.60;;
1336;SDS011;662;48.814;9.318;2023-12-28T02:40:18;2.30;;;2.10;;
1336;SDS011;662;48.814;9.318;2023-12-28T02:42:44;4.57;;;2.67;;
1336;SDS011;662;48.814;9.318;2023-12-28T02:45:10;3.03;;;2.27;;
1336;SDS011;662;48.814;9.318;2023-12-28T02:47:36;2.80;;;2.50;;
1336;SDS011;662;48.814;9.318;2023-12-28T02:50:02;2.47;;;2.27;;
1336;SDS011;662;48.814;9.318;2023-12-28T02:52:27;2.60;;;2.40;;
1336;SDS011;662;48.814;9.318;2023-12-28T02:54:53;2.57;;;2.37;;
1336;SDS011;662;48.814;9.318;2023-12-28T02:57:18;2.80;;;2.33;;
1336;SDS011;662;48.814;9.318;2023-12-28T02:59:45;2.63;;;2.43;;
1336;SDS011;662;48.814;9.318;2023-12-28T03:02:10;3.10;;;2.30;;
1336;SDS011;662;48.814;9.318;2023-12-28T03:04:36;2.97;;;2.37;;
1336;SDS011;662;48.814;9.318;2023-12-28T03:07:02;2.30;;;2.10;;
1336;SDS011;662;48.814;9.318;2023-12-28T03:09:27;2.93;;;2.63;;
1336;SDS011;662;48.814;9.318;2023-12-28T03:11:53;2.17;;;2.00;;
1336;SDS011;662;48.814;9.318;2023-12-28T03:14:18;3.00;;;2.70;;
1336;SDS011;662;48.814;9.318;2023-12-28T03:16:46;4.03;;;2.93;;
1336;SDS011;662;48.814;9.318;2023-12-28T03:19:12;3.40;;;3.10;;
1336;SDS011;662;48.814;9.318;2023-12-28T03:21:40;3.23;;;2.97;;
1336;SDS011;662;48.814;9.318;2023-12-28T03:24:07;3.30;;;3.00;;
1336;SDS011;662;48.814;9.318;2023-12-28T03:26:32;4.27;;;3.43;;
1336;SDS011;662;48.814;9.318;2023-12-28T03:29:06;3.00;;;2.80;;
1336;SDS011;662;48.814;9.318;2023-12-28T03:31:32;3.13;;;2.80;;
1336;SDS011;662;48.814;9.318;2023-12-28T03:33:58;4.63;;;2.90;;
1336;SDS011;662;48.814;9.318;2023-12-28T03:36:24;4.17;;;3.10;;
1336;SDS011;662;48.814;9.318;2023-12-28T03:38:50;2.93;;;2.73;;
1336;SDS011;662;48.814;9.318;2023-12-28T03:41:19;3.10;;;2.50;;
1336;SDS011;662;48.814;9.318;2023-12-28T03:43:45;3.90;;;2.90;;
1336;SDS011;662;48.814;9.318;2023-12-28T03:46:13;3.50;;;3.20;;
1336;SDS011;662;48.814;9.318;2023-12-28T03:48:39;3.80;;;2.80;;
1336;SDS011;662;48.814;9.318;2023-12-28T03:51:05;3.90;;;2.77;;
1336;SDS011;662;48.814;9.318;2023-12-28T03:53:31;4.63;;;2.70;;
1336;SDS011;662;48.814;9.318;2023-12-28T03:56:00;3.53;;;2.73;;
1336;SDS011;662;48.814;9.318;2023-12-28T03:58:26;4.20;;;2.47;;
1336;SDS011;662;48.814;9.318;2023-12-28T04:00:52;5.93;;;2.90;;
1336;SDS011;662;48.814;9.318;2023-12-28T04:03:18;2.87;;;2.50;;
1336;SDS011;662;48.814;9.318;2023-12-28T04:05:43;3.43;;;2.70;;
1336;SDS011;662;48.814;9.318;2023-12-28T04:08:09;3.20;;;2.90;;
1336;SDS011;662;48.814;9.318;2023-12-28T04:10:35;3.13;;;2.83;;
1336;SDS011;662;48.814;9.318;2023-12-28T04:13:02;2.70;;;2.50;;
1336;SDS011;662;48.814;9.318;2023-12-28T04:15:29;4.37;;;1.97;;
1336;SDS011;662;48.814;9.318;2023-12-28T04:17:55;2.00;;;1.80;;
1336;SDS011;662;48.814;9.318;2023-12-28T04:20:21;2.40;;;2.10;;
1336;SDS011;662;48.814;9.318;2023-12-28T04:22:46;2.13;;;1.93;;
1336;SDS011;662;48.814;9.318;2023-12-28T04:25:12;2.83;;;2.63;;
1336;SDS011;662;48.814;9.318;2023-12-28T04:27:38;4.80;;;2.80;;
1336;SDS011;662;48.814;9.318;2023-12-28T04:30:05;3.13;;;2.90;;
1336;SDS011;662;48.814;9.318;2023-12-28T04:32:32;3.53;;;2.87;;
1336;SDS011;662;48.814;9.318;2023-12-28T04:34:57;3.73;;;2.90;;
1336;SDS011;662;48.814;9.318;2023-12-28T04:37:23;2.90;;;2.43;;
1336;SDS011;662;48.814;9.318;2023-12-28T04:39:51;2.93;;;2.57;;
1336;SDS011;662;48.814;9.318;2023-12-28T04:42:16;2.70;;;2.50;;
1336;SDS011;662;48.814;9.318;2023-12-28T04:47:10;3.60;;;2.73;;
1336;SDS011;662;48.814;9.318;2023-12-28T04:49:36;4.50;;;3.10;;
1336;SDS011;662;48.814;9.318;2023-12-28T04:52:02;5.90;;;2.67;;
1336;SDS011;662;48.814;9.318;2023-12-28T04:54:27;2.73;;;2.53;;
1336;SDS011;662;48.814;9.318;2023-12-28T04:56:53;4.83;;;2.50;;
1336;SDS011;662;48.814;9.318;2023-12-28T04:59:19;3.30;;;2.67;;
1336;SDS011;662;48.814;9.318;2023-12-28T05:01:44;4.80;;;2.97;;
1336;SDS011;662;48.814;9.318;2023-12-28T05:04:11;3.57;;;3.13;;
1336;SDS011;662;48.814;9.318;2023-12-28T05:06:37;3.57;;;3.37;;
1336;SDS011;662;48.814;9.318;2023-12-28T05:09:03;3.03;;;2.80;;
1336;SDS011;662;48.814;9.318;2023-12-28T05:11:29;4.07;;;2.80;;
1336;SDS011;662;48.814;9.318;2023-12-28T05:13:55;2.87;;;2.67;;
1336;SDS011;662;48.814;9.318;2023-12-28T05:16:21;2.93;;;2.60;;
1336;SDS011;662;48.814;9.318;2023-12-28T05:18:47;3.07;;;2.50;;
1336;SDS011;662;48.814;9.318;2023-12-28T05:21:13;1.80;;;1.70;;
1336;SDS011;662;48.814;9.318;2023-12-28T05:23:39;3.13;;;2.33;;
1336;SDS011;662;48.814;9.318;2023-12-28T05:26:05;2.27;;;2.07;;
1336;SDS011;662;48.814;9.318;2023-12-28T05:28:31;3.67;;;2.10;;
1336;SDS011;662;48.814;9.318;2023-12-28T05:30:57;2.03;;;1.90;;
1336;SDS011;662;48.814;9.318;2023-12-28T05:33:26;3.00;;;2.47;;
1336;SDS011;662;48.814;9.318;2023-12-28T05:35:51;2.47;;;1.97;;
1336;SDS011;662;48.814;9.318;2023-12-28T05:38:17;2.50;;;2.27;;
1336;SDS011;662;48.814;9.318;2023-12-28T05:40:43;2.80;;;2.60;;
1336;SDS011;662;48.814;9.318;2023-12-28T05:43:09;3.50;;;2.90;;
1336;SDS011;662;48.814;9.318;2023-12-28T05:45:35;2.67;;;2.40;;
1336;SDS011;662;48.814;9.318;2023-12-28T05:48:01;3.07;;;2.20;;
1336;SDS011;662;48.814;9.318;2023-12-28T05:50:27;2.50;;;2.30;;
1336;SDS011;662;48.814;9.318;2023-12-28T05:52:53;2.70;;;2.20;;
1336;SDS011;662;48.814;9.318;2023-12-28T05:55:18;3.03;;;2.73;;
1336;SDS011;662;48.814;9.318;2023-12-28T05:57:44;3.33;;;2.00;;
1336;SDS011;662;48.814;9.318;2023-12-28T06:00:09;3.30;;;2.27;;
1336;SDS011;662;48.814;9.318;2023-12-28T06:02:36;3.50;;;2.17;;
1336;SDS011;662;48.814;9.318;2023-12-28T06:05:02;3.30;;;2.27;;
1336;SDS011;662;48.814;9.318;2023-12-28T06:07:28;7.60;;;2.30;;
1336;SDS011;662;48.814;9.318;2023-12-28T06:09:54;2.50;;;2.30;;
1336;SDS011;662;48.814;9.318;2023-12-28T06:12:19;2.03;;;1.80;;
1336;SDS011;662;48.814;9.318;2023-12-28T06:14:45;3.67;;;2.40;;
1336;SDS011;662;48.814;9.318;2023-12-28T06:17:11;2.40;;;1.90;;
1336;SDS011;662;48.814;9.318;2023-12-28T06:19:36;3.20;;;2.63;;
1336;SDS011;662;48.814;9.318;2023-12-28T06:22:02;2.80;;;2.60;;
1336;SDS011;662;48.814;9.318;2023-12-28T06:24:28;4.60;;;2.07;;
1336;SDS011;662;48.814;9.318;2023-12-28T06:26:53;2.83;;;2.30;;
1336;SDS011;662;48.814;9.318;2023-12-28T06:29:19;3.27;;;2.50;;
1336;SDS011;662;48.814;9.318;2023-12-28T06:31:45;3.20;;;2.50;;
1336;SDS011;662;48.814;9.318;2023-12-28T06:34:10;2.50;;;2.23;;
1336;SDS011;662;48.814;9.318;2023-12-28T06:36:36;2.43;;;2.23;;
1336;SDS011;662;48.814;9.318;2023-12-28T06:39:02;2.07;;;1.97;;
1336;SDS011;662;48.814;9.318;2023-12-28T06:41:27;2.83;;;2.33;;
1336;SDS011;662;48.814;9.318;2023-12-28T06:43:53;2.50;;;2.30;;
1336;SDS011;662;48.814;9.318;2023-12-28T06:46:19;3.20;;;2.63;;
1336;SDS011;662;48.814;9.318;2023-12-28T06:48:45;2.70;;;2.30;;
1336;SDS011;662;48.814;9.318;2023-12-28T06:51:21;3.90;;;2.30;;
1336;SDS011;662;48.814;9.318;2023-12-28T06:53:47;3.00;;;2.50;;
1336;SDS011;662;48.814;9.318;2023-12-28T06:56:14;2.73;;;2.53;;
1336;SDS011;662;48.814;9.318;2023-12-28T06:58:40;3.47;;;2.50;;
1336;SDS011;662;48.814;9.318;2023-12-28T07:01:06;4.00;;;2.83;;
1336;SDS011;662;48.814;9.318;2023-12-28T07:03:32;2.87;;;2.57;;
1336;SDS011;662;48.814;9.318;2023-12-28T07:05:58;4.40;;;3.20;;
1336;SDS011;662;48.814;9.318;2023-12-28T07:08:24;3.90;;;3.60;;
1336;SDS011;662;48.814;9.318;2023-12-28T07:10:50;5.03;;;4.37;;
1336;SDS011;662;48.814;9.318;2023-12-28T07:13:16;5.97;;;4.20;;
1336;SDS011;662;48.814;9.318;2023-12-28T07:15:41;5.83;;;3.30;;
1336;SDS011;662;48.814;9.318;2023-12-28T07:18:07;3.87;;;3.47;;
1336;SDS011;662;48.814;9.318;2023-12-28T07:20:33;5.30;;;3.30;;
1336;SDS011;662;48.814;9.318;2023-12-28T07:22:58;4.80;;;3.73;;
1336;SDS011;662;48.814;9.318;2023-12-28T07:25:24;5.40;;;4.20;;
1336;SDS011;662;48.814;9.318;2023-12-28T07:27:50;4.43;;;3.80;;
1336;SDS011;662;48.814;9.318;2023-12-28T07:30:15;7.10;;;3.20;;
1336;SDS011;662;48.814;9.318;2023-12-28T07:32:42;4.60;;;3.30;;
1336;SDS011;662;48.814;9.318;2023-12-28T07:35:08;4.87;;;2.73;;
1336;SDS011;662;48.814;9.318;2023-12-28T07:37:35;3.43;;;3.13;;
1336;SDS011;662;48.814;9.318;2023-12-28T07:40:01;3.27;;;2.97;;
1336;SDS011;662;48.814;9.318;2023-12-28T07:42:28;3.27;;;2.93;;
1336;SDS011;662;48.814;9.318;2023-12-28T07:44:54;8.13;;;4.10;;
1336;SDS011;662;48.814;9.318;2023-12-28T07:47:20;4.03;;;3.13;;
1336;SDS011;662;48.814;9.318;2023-12-28T07:49:45;3.50;;;3.10;;
1336;SDS011;662;48.814;9.318;2023-12-28T07:52:11;3.50;;;3.20;;
1336;SDS011;662;48.814;9.318;2023-12-28T07:54:36;4.23;;;2.80;;
1336;SDS011;662;48.814;9.318;2023-12-28T07:57:02;4.07;;;3.00;;
1336;SDS011;662;48.814;9.318;2023-12-28T07:59:28;4.17;;;3.10;;
1336;SDS011;662;48.814;9.318;2023-12-28T08:01:54;4.33;;;3.13;;
1336;SDS011;662;48.814;9.318;2023-12-28T08:04:20;4.63;;;3.03;;
1336;SDS011;662;48.814;9.318;2023-12-28T08:06:46;7.53;;;2.83;;
1336;SDS011;662;48.814;9.318;2023-12-28T08:09:11;4.90;;;3.30;;
1336;SDS011;662;48.814;9.318;2023-12-28T08:11:37;4.67;;;3.20;;
1336;SDS011;662;48.814;9.318;2023-12-28T08:14:03;5.97;;;3.40;;
1336;SDS011;662;48.814;9.318;2023-12-28T08:16:29;3.53;;;2.83;;
1336;SDS011;662;48.814;9.318;2023-12-28T08:18:55;5.30;;;2.90;;
1336;SDS011;662;48.814;9.318;2023-12-28T08:21:21;5.60;;;4.00;;
1336;SDS011;662;48.814;9.318;2023-12-28T08:23:46;3.70;;;3.30;;
1336;SDS011;662;48.814;9.318;2023-12-28T08:26:12;4.13;;;3.83;;
1336;SDS011;662;48.814;9.318;2023-12-28T08:28:38;6.73;;;3.90;;
1336;SDS011;662;48.814;9.318;2023-12-28T08:31:03;4.20;;;3.60;;
1336;SDS011;662;48.814;9.318;2023-12-28T08:33:29;4.30;;;3.53;;
1336;SDS011;662;48.814;9.318;2023-12-28T08:35:55;4.43;;;3.63;;
1336;SDS011;662;48.814;9.318;2023-12-28T08:38:20;4.20;;;3.47;;
1336;SDS011;662;48.814;9.318;2023-12-28T08:40:46;7.93;;;3.40;;
1336;SDS011;662;48.814;9.318;2023-12-28T08:43:11;3.40;;;3.03;;
1336;SDS011;662;48.814;9.318;2023-12-28T08:45:37;4.70;;;3.80;;
1336;SDS011;662;48.814;9.318;2023-12-28T08:48:03;3.67;;;3.03;;
1336;SDS011;662;48.814;9.318;2023-12-28T08:50:30;3.53;;;3.13;;
1336;SDS011;662;48.814;9.318;2023-12-28T08:52:55;4.73;;;4.10;;
1336;SDS011;662;48.814;9.318;2023-12-28T08:55:21;4.40;;;3.63;;
1336;SDS011;662;48.814;9.318;2023-12-28T08:57:47;4.47;;;3.17;;
1336;SDS011;662;48.814;9.318;2023-12-28T09:00:13;5.83;;;4.53;;
1336;SDS011;662;48.814;9.318;2023-12-28T09:02:40;5.57;;;4.60;;
1336;SDS011;662;48.814;9.318;2023-12-28T09:05:06;5.70;;;5.07;;
1336;SDS011;662;48.814;9.318;2023-12-28T09:07:32;5.80;;;4.00;;
1336;SDS011;662;48.814;9.318;2023-12-28T09:09:58;7.70;;;4.33;;
1336;SDS011;662;48.814;9.318;2023-12-28T09:12:23;4.97;;;4.20;;
1336;SDS011;662;48.814;9.318;2023-12-28T09:14:49;5.03;;;4.50;;
1336;SDS011;662;48.814;9.318;2023-12-28T09:17:17;4.10;;;3.70;;
1336;SDS011;662;48.814;9.318;2023-12-28T09:19:46;4.47;;;3.60;;
1336;SDS011;662;48.814;9.318;2023-12-28T09:22:11;5.20;;;4.20;;
1336;SDS011;662;48.814;9.318;2023-12-28T09:24:37;5.63;;;4.30;;
1336;SDS011;662;48.814;9.318;2023-12-28T09:27:03;6.90;;;5.07;;
1336;SDS011;662;48.814;9.318;2023-12-28T09:29:28;6.23;;;4.53;;
1336;SDS011;662;48.814;9.318;2023-12-28T09:31:54;5.00;;;4.30;;
1336;SDS011;662;48.814;9.318;2023-12-28T09:34:19;4.93;;;4.53;;
1336;SDS011;662;48.814;9.318;2023-12-28T09:36:45;7.07;;;4.53;;
1336;SDS011;662;48.814;9.318;2023-12-28T09:39:11;7.33;;;4.87;;
1336;SDS011;662;48.814;9.318;2023-12-28T09:41:38;6.07;;;3.90;;
1336;SDS011;662;48.814;9.318;2023-12-28T09:44:08;8.47;;;4.30;;
1336;SDS011;662;48.814;9.318;2023-12-28T09:46:36;5.43;;;4.10;;
1336;SDS011;662;48.814;9.318;2023-12-28T09:49:04;5.33;;;4.10;;
1336;SDS011;662;48.814;9.318;2023-12-28T09:51:29;4.67;;;3.83;;
1336;SDS011;662;48.814;9.318;2023-12-28T09:53:58;6.40;;;4.80;;
1336;SDS011;662;48.814;9.318;2023-12-28T09:56:24;5.37;;;4.13;;
1336;SDS011;662;48.814;9.318;2023-12-28T09:58:50;7.07;;;4.30;;
1336;SDS011;662;48.814;9.318;2023-12-28T10:01:18;7.47;;;4.70;;
1336;SDS011;662;48.814;9.318;2023-12-28T10:03:44;5.30;;;4.80;;
1336;SDS011;662;48.814;9.318;2023-12-28T10:06:09;4.80;;;4.40;;
1336;SDS011;662;48.814;9.318;2023-12-28T10:08:35;8.73;;;5.00;;
1336;SDS011;662;48.814;9.318;2023-12-28T10:11:01;5.60;;;4.87;;
1336;SDS011;662;48.814;9.318;2023-12-28T10:13:28;9.07;;;5.30;;
1336;SDS011;662;48.814;9.318;2023-12-28T10:15:58;10.90;;;7.40;;
1336;SDS011;662;48.814;9.318;2023-12-28T10:18:24;16.33;;;13.03;;
1336;SDS011;662;48.814;9.318;2023-12-28T10:20:50;16.53;;;13.13;;
1336;SDS011;662;48.814;9.318;2023-12-28T10:23:17;16.90;;;12.63;;
1336;SDS011;662;48.814;9.318;2023-12-28T10:25:44;8.70;;;7.80;;
1336;SDS011;662;48.814;9.318;2023-12-28T10:28:11;6.20;;;5.60;;
1336;SDS011;662;48.814;9.318;2023-12-28T10:30:37;7.03;;;6.00;;
1336;SDS011;662;48.814;9.318;2023-12-28T10:33:05;6.87;;;5.43;;
1336;SDS011;662;48.814;9.318;2023-12-28T10:35:31;8.37;;;6.00;;
1336;SDS011;662;48.814;9.318;2023-12-28T10:37:59;6.53;;;5.70;;
1336;SDS011;662;48.814;9.318;2023-12-28T10:40:25;6.00;;;4.70;;
1336;SDS011;662;48.814;9.318;2023-12-28T10:42:54;6.27;;;4.40;;
1336;SDS011;662;48.814;9.318;2023-12-28T10:45:24;7.47;;;4.37;;
1336;SDS011;662;48.814;9.318;2023-12-28T10:48:04;4.90;;;3.97;;
1336;SDS011;662;48.814;9.318;2023-12-28T10:50:35;5.17;;;4.23;;
1336;SDS011;662;48.814;9.318;2023-12-28T10:53:13;5.40;;;3.90;;
1336;SDS011;662;48.814;9.318;2023-12-28T10:55:53;4.83;;;3.83;;
1336;SDS011;662;48.814;9.318;2023-12-28T10:58:48;6.67;;;4.60;;
1336;SDS011;662;48.814;9.318;2023-12-28T11:01:15;5.57;;;3.77;;
1336;SDS011;662;48.814;9.318;2023-12-28T11:03:48;5.70;;;4.40;;
1336;SDS011;662;48.814;9.318;2023-12-28T11:06:22;5.60;;;4.10;;
1336;SDS011;662;48.814;9.318;2023-12-28T11:08:49;4.40;;;4.00;;
1336;SDS011;662;48.814;9.318;2023-12-28T11:11:18;8.13;;;4.87;;
1336;SDS011;662;48.814;9.318;2023-12-28T11:13:46;5.60;;;3.83;;
1336;SDS011;662;48.814;9.318;2023-12-28T11:16:13;6.03;;;4.40;;
1336;SDS011;662;48.814;9.318;2023-12-28T11:18:39;6.07;;;4.73;;
1336;SDS011;662;48.814;9.318;2023-12-28T11:21:06;7.50;;;5.93;;
1336;SDS011;662;48.814;9.318;2023-12-28T11:23:31;6.63;;;4.50;;
1336;SDS011;662;48.814;9.318;2023-12-28T11:25:58;6.40;;;4.80;;
1336;SDS011;662;48.814;9.318;2023-12-28T11:28:23;5.90;;;4.13;;
1336;SDS011;662;48.814;9.318;2023-12-28T11:30:51;5.10;;;4.57;;
1336;SDS011;662;48.814;9.318;2023-12-28T11:33:17;6.80;;;5.03;;
1336;SDS011;662;48.814;9.318;2023-12-28T11:35:43;4.77;;;4.37;;
1336;SDS011;662;48.814;9.318;2023-12-28T11:38:12;6.87;;;5.20;;
1336;SDS011;662;48.814;9.318;2023-12-28T11:40:42;9.60;;;5.50;;
1336;SDS011;662;48.814;9.318;2023-12-28T11:43:18;5.50;;;4.67;;
1336;SDS011;662;48.814;9.318;2023-12-28T11:45:51;8.07;;;4.80;;
1336;SDS011;662;48.814;9.318;2023-12-28T11:48:27;7.93;;;5.20;;
1336;SDS011;662;48.814;9.318;2023-12-28T11:51:02;8.87;;;5.53;;
1336;SDS011;662;48.814;9.318;2023-12-28T11:53:28;5.53;;;4.40;;
1336;SDS011;662;48.814;9.318;2023-12-28T11:55:59;6.50;;;4.97;;
1336;SDS011;662;48.814;9.318;2023-12-28T11:58:28;7.33;;;5.53;;
1336;SDS011;662;48.814;9.318;2023-12-28T12:00:54;9.67;;;5.57;;
1336;SDS011;662;48.814;9.318;2023-12-28T12:03:19;6.67;;;5.30;;
1336;SDS011;662;48.814;9.318;2023-12-28T12:05:45;7.40;;;5.03;;
1336;SDS011;662;48.814;9.318;2023-12-28T12:08:10;7.60;;;5.50;;
1336;SDS011;662;48.814;9.318;2023-12-28T12:10:42;5.37;;;4.87;;
1336;SDS011;662;48.814;9.318;2023-12-28T12:13:08;7.10;;;5.00;;
1336;SDS011;662;48.814;9.318;2023-12-28T12:15:34;6.10;;;5.50;;
1336;SDS011;662;48.814;9.318;2023-12-28T12:18:00;7.50;;;5.87;;
1336;SDS011;662;48.814;9.318;2023-12-28T12:20:26;6.47;;;5.50;;
1336;SDS011;662;48.814;9.318;2023-12-28T12:22:56;6.87;;;5.70;;
1336;SDS011;662;48.814;9.318;2023-12-28T12:25:25;5.20;;;4.70;;
1336;SDS011;662;48.814;9.318;2023-12-28T12:27:51;5.40;;;4.80;;
1336;SDS011;662;48.814;9.318;2023-12-28T12:30:18;7.13;;;5.27;;
1336;SDS011;662;48.814;9.318;2023-12-28T12:32:44;6.77;;;5.10;;
1336;SDS011;662;48.814;9.318;2023-12-28T12:35:10;7.70;;;5.03;;
1336;SDS011;662;48.814;9.318;2023-12-28T12:37:37;6.20;;;4.50;;
1336;SDS011;662;48.814;9.318;2023-12-28T12:40:03;7.20;;;5.00;;
1336;SDS011;662;48.814;9.318;2023-12-28T12:42:31;6.93;;;5.00;;
1336;SDS011;662;48.814;9.318;2023-12-28T12:44:57;9.30;;;5.87;;
1336;SDS011;662;48.814;9.318;2023-12-28T12:47:23;9.47;;;7.27;;
1336;SDS011;662;48.814;9.318;2023-12-28T12:49:51;10.27;;;7.20;;
1336;SDS011;662;48.814;9.318;2023-12-28T12:52:17;15.30;;;7.13;;
1336;SDS011;662;48.814;9.318;2023-12-28T12:54:52;8.97;;;5.90;;
1336;SDS011;662;48.814;9.318;2023-12-28T12:57:18;8.37;;;6.37;;
1336;SDS011;662;48.814;9.318;2023-12-28T12:59:44;8.23;;;5.93;;
1336;SDS011;662;48.814;9.318;2023-12-28T13:02:10;9.30;;;7.20;;
1336;SDS011;662;48.814;9.318;2023-12-28T13:04:37;8.07;;;6.70;;
1336;SDS011;662;48.814;9.318;2023-12-28T13:07:03;9.67;;;7.20;;
1336;SDS011;662;48.814;9.318;2023-12-28T13:09:29;12.00;;;6.80;;
1336;SDS011;662;48.814;9.318;2023-12-28T13:11:55;8.20;;;6.60;;
1336;SDS011;662;48.814;9.318;2023-12-28T13:14:21;7.77;;;6.13;;
1336;SDS011;662;48.814;9.318;2023-12-28T13:16:47;11.00;;;6.73;;
1336;SDS011;662;48.814;9.318;2023-12-28T13:19:17;10.23;;;6.30;;
1336;SDS011;662;48.814;9.318;2023-12-28T13:21:42;9.43;;;6.00;;
1336;SDS011;662;48.814;9.318;2023-12-28T13:24:09;6.87;;;6.23;;
1336;SDS011;662;48.814;9.318;2023-12-28T13:26:34;7.40;;;5.93;;
1336;SDS011;662;48.814;9.318;2023-12-28T13:29:00;8.20;;;6.23;;
1336;SDS011;662;48.814;9.318;2023-12-28T13:31:25;10.53;;;5.80;;
1336;SDS011;662;48.814;9.318;2023-12-28T13:33:51;8.23;;;6.27;;
1336;SDS011;662;48.814;9.318;2023-12-28T13:36:17;8.20;;;6.07;;
1336;SDS011;662;48.814;9.318;2023-12-28T13:38:43;10.70;;;7.50;;
1336;SDS011;662;48.814;9.318;2023-12-28T13:41:09;12.80;;;10.47;;
1336;SDS011;662;48.814;9.318;2023-12-28T13:43:35;28.97;;;26.07;;
1336;SDS011;662;48.814;9.318;2023-12-28T13:46:01;31.03;;;26.80;;
1336;SDS011;662;48.814;9.318;2023-12-28T13:48:29;27.90;;;25.00;;
1336;SDS011;662;48.814;9.318;2023-12-28T13:50:55;21.30;;;18.97;;
1336;SDS011;662;48.814;9.318;2023-12-28T13:53:21;16.23;;;12.47;;
1336;SDS011;662;48.814;9.318;2023-12-28T13:55:47;14.63;;;12.10;;
1336;SDS011;662;48.814;9.318;2023-12-28T13:58:12;7.10;;;6.17;;
1336;SDS011;662;48.814;9.318;2023-12-28T14:00:40;7.63;;;6.10;;
1336;SDS011;662;48.814;9.318;2023-12-28T14:03:05;6.63;;;5.63;;
1336;SDS011;662;48.814;9.318;2023-12-28T14:05:31;9.73;;;8.50;;
1336;SDS011;662;48.814;9.318;2023-12-28T14:07:57;4.93;;;4.40;;
1336;SDS011;662;48.814;9.318;2023-12-28T14:10:23;3.50;;;3.20;;
1336;SDS011;662;48.814;9.318;2023-12-28T14:12:49;3.10;;;2.80;;
1336;SDS011;662;48.814;9.318;2023-12-28T14:15:15;3.87;;;2.30;;
1336;SDS011;662;48.814;9.318;2023-12-28T14:17:41;2.57;;;2.37;;
1336;SDS011;662;48.814;9.318;2023-12-28T14:20:07;5.27;;;2.10;;
1336;SDS011;662;48.814;9.318;2023-12-28T14:22:36;2.20;;;2.00;;
1336;SDS011;662;48.814;9.318;2023-12-28T14:25:06;2.90;;;2.20;;
1336;SDS011;662;48.814;9.318;2023-12-28T14:27:32;2.23;;;1.87;;
1336;SDS011;662;48.814;9.318;2023-12-28T14:29:58;4.30;;;2.57;;
1336;SDS011;662;48.814;9.318;2023-12-28T14:32:27;3.13;;;2.30;;
1336;SDS011;662;48.814;9.318;2023-12-28T14:34:52;6.30;;;2.43;;
1336;SDS011;662;48.814;9.318;2023-12-28T14:37:18;3.37;;;3.03;;
1336;SDS011;662;48.814;9.318;2023-12-28T14:39:44;2.93;;;2.53;;
1336;SDS011;662;48.814;9.318;2023-12-28T14:42:10;3.10;;;2.60;;
1336;SDS011;662;48.814;9.318;2023-12-28T14:44:35;3.83;;;3.20;;
1336;SDS011;662;48.814;9.318;2023-12-28T14:47:01;3.67;;;3.37;;
1336;SDS011;662;48.814;9.318;2023-12-28T14:49:26;2.93;;;2.73;;
1336;SDS011;662;48.814;9.318;2023-12-28T14:51:52;3.40;;;3.10;;
1336;SDS011;662;48.814;9.318;2023-12-28T14:54:18;2.50;;;2.30;;
1336;SDS011;662;48.814;9.318;2023-12-28T14:56:43;2.97;;;2.67;;
1336;SDS011;662;48.814;9.318;2023-12-28T14:59:10;2.40;;;2.20;;
1336;SDS011;662;48.814;9.318;2023-12-28T15:01:36;5.27;;;2.27;;
1336;SDS011;662;48.814;9.318;2023-12-28T15:04:02;2.43;;;2.23;;
1336;SDS011;662;48.814;9.318;2023-12-28T15:06:27;2.80;;;2.50;;
1336;SDS011;662;48.814;9.318;2023-12-28T15:08:53;4.00;;;2.70;;
1336;SDS011;662;48.814;9.318;2023-12-28T15:11:19;3.50;;;2.90;;
1336;SDS011;662;48.814;9.318;2023-12-28T15:13:44;3.20;;;2.83;;
1336;SDS011;662;48.814;9.318;2023-12-28T15:16:10;2.70;;;2.13;;
1336;SDS011;662;48.814;9.318;2023-12-28T15:18:36;3.90;;;2.90;;
1336;SDS011;662;48.814;9.318;2023-12-28T15:21:02;2.50;;;2.30;;
1336;SDS011;662;48.814;9.318;2023-12-28T15:23:28;4.20;;;2.77;;
1336;SDS011;662;48.814;9.318;2023-12-28T15:25:54;4.10;;;2.40;;
1336;SDS011;662;48.814;9.318;2023-12-28T15:28:20;4.37;;;2.63;;
1336;SDS011;662;48.814;9.318;2023-12-28T15:30:46;3.53;;;3.00;;
1336;SDS011;662;48.814;9.318;2023-12-28T15:33:11;3.00;;;2.70;;